• Join FlightAware (Why Join?)
  • Login
  • US Flag 
11:50PM EDT


 

Airport Tracker/Info


-or-


 

Live Flight TrackerFlight Track Log ✈ N373SR ✈ 04-Jun-2013 ✈ KUUU - KHPN

Flight Track Log - Related Links

Times and Time Zones

All times are in EDT time to prevent confusion due to time zone crossing. See the N373SR flight status page for this flight to view local times or setup timezone preferences in your user account.

Time Position Orientation Groundspeed Altitude Reporting Facility
EDT Latitude Longitude Course Direction KTS MPH feet Rate Location/Type
09:58PM 41.4647 -71.4928 256° West 142 163 4,400  Level Boston Center
09:59PM 41.4569 -71.5456 259° West 159 183 4,500  Climbing Boston Center
10:00PM 41.4450 -71.6067 255° West 165 190 4,500  Level Boston Center
10:01PM 41.4350 -71.6675 258° West 171 197 4,500  Level Boston Center
10:02PM 41.4250 -71.7286 258° West 168 193 4,500  Level Boston Center
10:03PM 41.4757 -71.5941 256° West  Level Estimated
10:03PM 41.4150 -71.7925 258° West 167 192 4,500  Level Boston Center
10:04PM 41.4047 -71.8533 257° West 168 193 4,500  Level Boston Center
10:05PM 41.3947 -71.9144 258° West 170 196 4,500  Level Boston Center
10:06PM 41.3825 -71.9697 254° West 169 194 4,500  Level Boston Center
10:07PM 41.3722 -72.0333 258° West 171 197 4,500  Level Boston Center
10:09PM 41.3500 -72.1333 254° West 170 196 4,600  Climbing New York TRACON
10:10PM 41.3500 -72.2000 270° West 171 197 4,600  Level New York TRACON
10:11PM 41.3333 -72.2667 252° West 172 198 4,600  Level New York TRACON
10:12PM 41.3167 -72.3167 246° West 174 200 4,600  Level New York TRACON
10:13PM 41.3167 -72.3833 270° West 171 197 4,600 -60 Level New York TRACON
10:14PM 41.3000 -72.4500 252° West 170 196 4,500  Descending New York TRACON
10:15PM 41.2833 -72.5000 246° West 165 190 4,600  Climbing New York TRACON
10:16PM 41.2833 -72.5500 270° West 161 185 4,600  Level New York TRACON
10:17PM 41.2667 -72.6167 252° West 159 183 4,600  Level New York TRACON
10:18PM 41.2500 -72.6667 246° West 157 181 4,600  Level New York TRACON
10:19PM 41.2500 -72.7333 270° West 159 183 4,600  Level New York TRACON
10:20PM 41.2333 -72.7833 246° West 157 181 4,600  Level New York TRACON
10:21PM 41.2333 -72.8333 270° West 156 180 4,600  Level New York TRACON
10:22PM 41.2167 -72.9000 252° West 158 182 4,600  Level New York TRACON
10:23PM 41.2000 -72.9500 246° West 159 183 4,600  Level New York TRACON
10:24PM 41.2000 -73.0167 270° West 160 184 4,600  Level New York TRACON
10:25PM 41.1833 -73.0667 246° West 161 185 4,600  Level New York TRACON
10:26PM 41.1667 -73.1333 252° West 162 186 4,600  Level New York TRACON
10:27PM 41.1667 -73.1833 270° West 160 184 4,600  Level New York TRACON
10:28PM 41.1500 -73.2500 252° West 164 189 4,600  Level New York TRACON
10:29PM 41.1333 -73.3000 246° West 166 191 4,600  Level New York TRACON
10:30PM 41.1000 -73.3667 236° Southwest 170 196 4,600  Level New York TRACON
10:31PM 41.0833 -73.4167 246° West 172 198 4,600  Level New York TRACON
10:32PM 41.0500 -73.4667 229° Southwest 172 198 4,600 -480 Level New York TRACON
10:33PM 41.0333 -73.5167 246° West 173 199 3,800 -780 Descending New York TRACON
10:34PM 41.0000 -73.5667 229° Southwest 178 205 3,100 -600 Descending New York TRACON
10:35PM 40.9667 -73.6000 217° Southwest 154 177 2,600 -540 Descending New York TRACON
10:36PM 40.9833 -73.6333 304° West 100 115 2,100 -480 Descending New York TRACON
10:37PM 41.0000 -73.6500 323° Northwest 75 86 1,800 -360 Descending New York TRACON
10:38PM 41.0167 -73.6667 323° Northwest 75 86 1,400 -420 Descending New York TRACON
10:39PM 41.0333 -73.6833 323° Northwest 84 97 1,000 -480 Descending New York TRACON
10:40PM 41.0500 -73.7000 323° Northwest 78 90 600 -480 Descending New York TRACON
10:42PM 41.0667 -73.7000 270° West  Level FlightAware Approximate
10:49PM 41.0669 -73.7076 270° West  Level Estimated
10:50PM 41.0667 -73.7000 270° West  Level FlightAware Approximate